Time;durP1;ratioP1;P1;durP2;ratioP2;P2;SDS_P1;SDS_P2;PMS_P1;PMS_P2;Temp;Humidity;BMP_temperature;BMP_pressure;BME280_temperature;BME280_humidity;BME280_pressure;Samples;Min_cycle;Max_cycle;Signal;HPM_P1;HPM_P2
2023/08/17 00:03:44;;;;;;;4.60;1.95;;;;;;;;;;21007556;28;20041;-64
2023/08/17 00:13:45;;;;;;;4.15;2.25;;;;;;;;;;21006931;28;20033;-63
2023/08/17 00:23:46;;;;;;;5.45;2.60;;;;;;;;;;21006003;28;20048;-63
2023/08/17 00:33:48;;;;;;;7.50;4.90;;;;;;;;;;21003741;28;20059;-63
2023/08/17 00:43:49;;;;;;;5.20;2.05;;;;;;;;;;21004560;28;20200;-63
2023/08/17 00:53:58;;;;;;;5.90;3.45;;;;;;;;;;21002106;28;20051;-64
2023/08/17 01:03:59;;;;;;;5.40;2.63;;;;;;;;;;21002694;28;20052;-63
2023/08/17 01:14:06;;;;;;;5.00;2.05;;;;;;;;;;21001215;28;20045;-63
2023/08/17 01:24:07;;;;;;;3.78;2.00;;;;;;;;;;21000858;28;20105;-63
2023/08/17 01:34:10;;;;;;;5.03;2.50;;;;;;;;;;21000255;28;20045;-63
2023/08/17 01:44:12;;;;;;;3.83;2.25;;;;;;;;;;20999588;28;20040;-63
2023/08/17 01:54:13;;;;;;;3.88;2.13;;;;;;;;;;20997602;28;20060;-63
2023/08/17 02:04:15;;;;;;;7.38;2.58;;;;;;;;;;20998328;28;20053;-63
2023/08/17 02:14:16;;;;;;;3.22;1.63;;;;;;;;;;20996472;28;20055;-62
2023/08/17 02:24:17;;;;;;;4.18;2.35;;;;;;;;;;20996312;28;20409;-62
2023/08/17 02:34:18;;;;;;;12.85;1.73;;;;;;;;;;20995271;28;20080;-62
2023/08/17 02:44:21;;;;;;;5.25;2.35;;;;;;;;;;20995956;28;20072;-63
2023/08/17 02:54:22;;;;;;;4.68;2.00;;;;;;;;;;20994548;28;20127;-62
2023/08/17 03:04:24;;;;;;;5.80;2.10;;;;;;;;;;20995379;28;20529;-63
2023/08/17 03:14:25;;;;;;;1.98;1.40;;;;;;;;;;20993353;28;20485;-62
2023/08/17 03:24:26;;;;;;;7.03;2.25;;;;;;;;;;20995108;28;20443;-62
2023/08/17 03:34:27;;;;;;;5.03;2.72;;;;;;;;;;20998600;28;20041;-62
2023/08/17 03:44:28;;;;;;;5.32;1.95;;;;;;;;;;21008950;28;20067;-62
2023/08/17 03:54:29;;;;;;;3.05;1.73;;;;;;;;;;21007185;28;20109;-62
2023/08/17 04:04:30;;;;;;;4.32;1.92;;;;;;;;;;21007509;28;20115;-62
2023/08/17 04:14:32;;;;;;;5.50;2.33;;;;;;;;;;21006748;28;20049;-62
2023/08/17 04:24:33;;;;;;;4.57;2.25;;;;;;;;;;21004714;28;20049;-63
2023/08/17 04:34:35;;;;;;;6.18;1.98;;;;;;;;;;21005047;28;20501;-62
2023/08/17 04:44:36;;;;;;;7.03;2.25;;;;;;;;;;21002203;28;20059;-63
2023/08/17 04:54:37;;;;;;;3.92;1.80;;;;;;;;;;21004252;28;20510;-63
2023/08/17 05:04:39;;;;;;;4.75;1.85;;;;;;;;;;21001744;28;20045;-63
2023/08/17 05:14:40;;;;;;;4.50;2.05;;;;;;;;;;21000669;28;20056;-63
2023/08/17 05:24:42;;;;;;;6.32;2.35;;;;;;;;;;21001328;28;20042;-62
2023/08/17 05:34:43;;;;;;;4.93;1.77;;;;;;;;;;21000024;28;20079;-63
2023/08/17 05:44:44;;;;;;;5.40;2.10;;;;;;;;;;20999735;28;20128;-62
2023/08/17 05:54:45;;;;;;;3.58;1.92;;;;;;;;;;20997495;28;20048;-63
2023/08/17 06:04:47;;;;;;;7.20;2.00;;;;;;;;;;20998655;28;20130;-62
2023/08/17 06:14:49;;;;;;;3.15;2.03;;;;;;;;;;20998219;28;20401;-63
2023/08/17 06:24:50;;;;;;;3.65;1.92;;;;;;;;;;20997671;28;20512;-62
2023/08/17 06:34:51;;;;;;;4.88;2.55;;;;;;;;;;20996912;28;20504;-62
2023/08/17 06:44:52;;;;;;;6.68;2.70;;;;;;;;;;20996624;28;20059;-63
2023/08/17 06:54:53;;;;;;;12.65;3.15;;;;;;;;;;20995801;28;20044;-63
2023/08/17 07:04:54;;;;;;;8.30;2.40;;;;;;;;;;20996025;28;20071;-63
2023/08/17 07:14:55;;;;;;;5.72;2.05;;;;;;;;;;21008741;28;20048;-62
2023/08/17 07:24:57;;;;;;;7.80;2.00;;;;;;;;;;21010812;28;20094;-62
2023/08/17 07:34:58;;;;;;;9.57;2.60;;;;;;;;;;21009842;28;20397;-63
2023/08/17 07:44:59;;;;;;;6.50;2.10;;;;;;;;;;21009389;28;20379;-63
2023/08/17 07:55:00;;;;;;;7.10;2.20;;;;;;;;;;21007028;28;20541;-63
2023/08/17 08:05:01;;;;;;;10.23;2.60;;;;;;;;;;21005626;28;20048;-63
2023/08/17 08:15:02;;;;;;;8.10;1.88;;;;;;;;;;21004930;28;20098;-63
2023/08/17 08:25:04;;;;;;;9.13;2.20;;;;;;;;;;21006090;28;20048;-63
2023/08/17 08:35:05;;;;;;;7.35;2.13;;;;;;;;;;21005330;28;20043;-63
2023/08/17 08:45:07;;;;;;;5.82;1.73;;;;;;;;;;21004454;28;20114;-63
2023/08/17 08:55:28;;;;;;;7.95;2.40;;;;;;;;;;21002698;28;20049;-64
2023/08/17 09:05:29;;;;;;;6.80;2.00;;;;;;;;;;21001426;28;20045;-63
2023/08/17 09:15:30;;;;;;;4.45;2.10;;;;;;;;;;21001616;28;20083;-62
2023/08/17 09:25:34;;;;;;;10.38;2.10;;;;;;;;;;20999941;28;20090;-65
2023/08/17 09:35:35;;;;;;;6.13;2.45;;;;;;;;;;20999784;28;20036;-63
2023/08/17 09:45:38;;;;;;;7.30;2.20;;;;;;;;;;21000509;28;20083;-61
2023/08/17 09:55:41;;;;;;;9.23;2.28;;;;;;;;;;20995827;28;20056;-63
2023/08/17 10:05:43;;;;;;;5.40;1.80;;;;;;;;;;20998081;28;20118;-62
2023/08/17 10:15:53;;;;;;;7.95;1.92;;;;;;;;;;20997061;28;20474;-62
2023/08/17 10:25:55;;;;;;;12.75;3.30;;;;;;;;;;20996958;28;20150;-62
2023/08/17 10:35:56;;;;;;;7.43;1.98;;;;;;;;;;20995001;28;20047;-62
2023/08/17 10:46:15;;;;;;;4.25;1.95;;;;;;;;;;21002105;28;20045;-62
2023/08/17 10:56:17;;;;;;;4.72;1.52;;;;;;;;;;21013859;28;20044;-62
2023/08/17 11:06:18;;;;;;;5.90;1.55;;;;;;;;;;21011815;28;20037;-63
2023/08/17 11:16:19;;;;;;;4.13;1.20;;;;;;;;;;21011192;28;20482;-63
2023/08/17 11:26:20;;;;;;;3.22;1.10;;;;;;;;;;21010256;28;20132;-62
2023/08/17 11:36:23;;;;;;;1.50;1.00;;;;;;;;;;21009075;28;20501;-63
2023/08/17 11:46:25;;;;;;;3.25;1.55;;;;;;;;;;21008274;28;20531;-62
2023/08/17 11:56:26;;;;;;;4.32;1.50;;;;;;;;;;21006187;28;20106;-62
2023/08/17 12:06:27;;;;;;;4.72;1.83;;;;;;;;;;21006077;28;20037;-62
2023/08/17 12:16:29;;;;;;;4.15;1.27;;;;;;;;;;21006662;28;20037;-63
2023/08/17 12:26:32;;;;;;;3.00;1.50;;;;;;;;;;21006150;28;20112;-62
2023/08/17 12:36:35;;;;;;;4.82;1.70;;;;;;;;;;21003423;28;20052;-62
2023/08/17 12:46:36;;;;;;;4.22;1.40;;;;;;;;;;21004654;28;20059;-63
2023/08/17 12:56:37;;;;;;;4.75;2.30;;;;;;;;;;21004270;28;20053;-62
2023/08/17 13:06:38;;;;;;;4.13;1.67;;;;;;;;;;21001803;28;20044;-62
2023/08/17 13:16:39;;;;;;;1.55;1.10;;;;;;;;;;21001952;28;20062;-61
2023/08/17 13:26:40;;;;;;;2.83;1.30;;;;;;;;;;21000990;28;20126;-62
2023/08/17 13:36:42;;;;;;;1.85;1.20;;;;;;;;;;21000237;28;20497;-62
2023/08/17 13:46:43;;;;;;;2.50;1.23;;;;;;;;;;20999434;28;20147;-62
2023/08/17 13:56:44;;;;;;;3.40;1.17;;;;;;;;;;20999731;28;20057;-63
2023/08/17 14:06:45;;;;;;;1.95;1.33;;;;;;;;;;20998240;28;20040;-62
2023/08/17 14:16:47;;;;;;;4.38;1.45;;;;;;;;;;20996109;28;20048;-62
2023/08/17 14:26:49;;;;;;;3.90;1.60;;;;;;;;;;20998726;28;20147;-62
2023/08/17 14:36:50;;;;;;;3.53;1.25;;;;;;;;;;20996894;28;20048;-62
2023/08/17 14:46:51;;;;;;;3.35;1.13;;;;;;;;;;20996231;28;20052;-61
2023/08/17 14:56:52;;;;;;;2.25;1.33;;;;;;;;;;20997231;28;20477;-62
2023/08/17 15:06:53;;;;;;;2.42;1.30;;;;;;;;;;20995547;28;20404;-62
2023/08/17 15:16:54;;;;;;;3.08;1.42;;;;;;;;;;20995242;28;20059;-62
2023/08/17 15:26:55;;;;;;;5.45;4.63;;;;;;;;;;20994462;28;20055;-62
2023/08/17 15:36:57;;;;;;;3.30;1.50;;;;;;;;;;21008956;28;20539;-62
2023/08/17 15:46:58;;;;;;;4.68;1.52;;;;;;;;;;21009148;28;20055;-62
2023/08/17 15:56:59;;;;;;;5.47;2.10;;;;;;;;;;21006971;28;20041;-62
2023/08/17 16:07:00;;;;;;;6.18;1.30;;;;;;;;;;21007662;28;20395;-62
2023/08/17 16:17:01;;;;;;;3.45;1.48;;;;;;;;;;21006636;28;20044;-62
2023/08/17 16:27:02;;;;;;;5.43;3.45;;;;;;;;;;21004944;28;20052;-62
2023/08/17 16:37:03;;;;;;;4.30;1.38;;;;;;;;;;21005157;28;20379;-62
2023/08/17 16:47:05;;;;;;;3.08;1.50;;;;;;;;;;21003164;28;20044;-63
2023/08/17 16:57:06;;;;;;;1.98;1.42;;;;;;;;;;21002094;28;20071;-62
2023/08/17 17:07:07;;;;;;;1.75;1.40;;;;;;;;;;21002612;28;20129;-63
2023/08/17 17:17:08;;;;;;;2.67;1.77;;;;;;;;;;21001367;28;20044;-62
2023/08/17 17:27:09;;;;;;;2.92;1.38;;;;;;;;;;21000516;28;20131;-62
2023/08/17 17:37:10;;;;;;;3.28;1.50;;;;;;;;;;20999941;28;20072;-62
2023/08/17 17:47:11;;;;;;;2.95;1.45;;;;;;;;;;20999878;28;20040;-62
2023/08/17 17:57:12;;;;;;;3.00;1.60;;;;;;;;;;20996467;28;20048;-61
2023/08/17 18:07:13;;;;;;;4.60;1.20;;;;;;;;;;20997842;28;20119;-62
2023/08/17 18:17:14;;;;;;;4.47;1.42;;;;;;;;;;20996151;28;20040;-62
2023/08/17 18:27:16;;;;;;;4.40;1.38;;;;;;;;;;20996799;28;20480;-62
2023/08/17 18:37:17;;;;;;;3.58;2.20;;;;;;;;;;20994852;28;20044;-62
2023/08/17 18:47:18;;;;;;;2.85;1.50;;;;;;;;;;20996160;28;20045;-62
2023/08/17 18:57:19;;;;;;;2.35;1.35;;;;;;;;;;20993705;28;20056;-61
2023/08/17 19:07:20;;;;;;;3.75;1.48;;;;;;;;;;21002948;28;20395;-62
2023/08/17 19:17:21;;;;;;;7.57;1.73;;;;;;;;;;21009140;28;20044;-62
2023/08/17 19:27:22;;;;;;;2.97;1.60;;;;;;;;;;21009540;28;20048;-62
2023/08/17 19:37:23;;;;;;;4.95;2.30;;;;;;;;;;20938897;28;20045;-62
2023/08/17 19:47:25;;;;;;;3.08;1.60;;;;;;;;;;20922264;28;20431;-61
2023/08/17 19:57:26;;;;;;;6.53;1.70;;;;;;;;;;20918654;28;20098;-61
2023/08/17 20:07:27;;;;;;;3.50;1.63;;;;;;;;;;20913966;28;20068;-62
2023/08/17 20:17:28;;;;;;;3.97;2.08;;;;;;;;;;20922152;28;20056;-63
2023/08/17 20:27:29;;;;;;;4.32;2.05;;;;;;;;;;20921896;28;20049;-62
2023/08/17 20:37:30;;;;;;;2.35;1.90;;;;;;;;;;20920865;28;20044;-62
2023/08/17 20:47:31;;;;;;;3.05;1.65;;;;;;;;;;20921494;28;20045;-62
2023/08/17 20:57:32;;;;;;;4.60;2.55;;;;;;;;;;20920869;28;20052;-61
2023/08/17 21:07:33;;;;;;;3.80;2.72;;;;;;;;;;20921385;28;20072;-63
2023/08/17 21:17:35;;;;;;;3.50;1.73;;;;;;;;;;20920278;28;20052;-63
2023/08/17 21:27:36;;;;;;;3.35;1.60;;;;;;;;;;20918717;28;20115;-62
2023/08/17 21:37:38;;;;;;;3.05;1.45;;;;;;;;;;20917593;28;20044;-62
2023/08/17 21:47:39;;;;;;;10.02;6.03;;;;;;;;;;20915569;28;20056;-63
2023/08/17 21:57:41;;;;;;;2.30;1.48;;;;;;;;;;20916298;28;20592;-61
2023/08/17 22:07:42;;;;;;;3.95;1.70;;;;;;;;;;20913171;28;20542;-63
2023/08/17 22:17:43;;;;;;;5.32;2.15;;;;;;;;;;20913219;28;20094;-62
2023/08/17 22:27:44;;;;;;;3.20;1.40;;;;;;;;;;20911642;28;20137;-62
2023/08/17 22:37:45;;;;;;;3.38;1.30;;;;;;;;;;20912952;28;20048;-62
2023/08/17 22:47:47;;;;;;;4.57;1.70;;;;;;;;;;20911974;28;20055;-61
2023/08/17 22:57:48;;;;;;;2.83;1.33;;;;;;;;;;20910880;28;20071;-62
2023/08/17 23:07:49;;;;;;;2.78;1.55;;;;;;;;;;20911708;28;20092;-62
2023/08/17 23:17:50;;;;;;;5.15;2.70;;;;;;;;;;20910327;28;20080;-62
2023/08/17 23:27:51;;;;;;;3.80;1.20;;;;;;;;;;20911175;28;20387;-62
2023/08/17 23:37:52;;;;;;;3.00;1.70;;;;;;;;;;20909530;28;20049;-62
2023/08/17 23:47:54;;;;;;;1.73;1.50;;;;;;;;;;20910435;28;20088;-62
2023/08/17 23:57:55;;;;;;;2.67;1.50;;;;;;;;;;20924220;28;20053;-62
